Time;durP1;ratioP1;P1;durP2;ratioP2;P2;SDS_P1;SDS_P2;PMS_P1;PMS_P2;Temp;Humidity;BMP_temperature;BMP_pressure;BME280_temperature;BME280_humidity;BME280_pressure;Samples;Min_cycle;Max_cycle;Signal;HPM_P1;HPM_P2
2023/04/21 00:02:14;;;;;;;6.90;4.22;;;;;;;;;;4936039;29;20048;-65
2023/04/21 00:04:41;;;;;;;7.20;4.70;;;;;;;;;;4935907;29;20077;-65
2023/04/21 00:07:08;;;;;;;6.10;4.65;;;;;;;;;;4936008;29;20067;-65
2023/04/21 00:09:34;;;;;;;7.13;4.78;;;;;;;;;;4935932;29;20086;-65
2023/04/21 00:12:00;;;;;;;7.32;4.97;;;;;;;;;;4935927;29;20047;-65
2023/04/21 00:14:27;;;;;;;6.10;4.63;;;;;;;;;;4936071;29;20048;-65
2023/04/21 00:16:53;;;;;;;7.57;4.95;;;;;;;;;;4936031;29;20101;-65
2023/04/21 00:19:19;;;;;;;7.15;4.90;;;;;;;;;;4935814;29;20407;-64
2023/04/21 00:21:46;;;;;;;8.43;5.43;;;;;;;;;;4936040;29;20491;-65
2023/04/21 00:24:13;;;;;;;7.22;4.60;;;;;;;;;;4935726;29;20485;-65
2023/04/21 00:26:39;;;;;;;10.15;5.78;;;;;;;;;;4935680;29;20138;-64
2023/04/21 00:29:05;;;;;;;7.43;5.53;;;;;;;;;;4935635;29;20518;-65
2023/04/21 00:31:32;;;;;;;6.18;5.20;;;;;;;;;;4935577;29;20056;-65
2023/04/21 00:33:58;;;;;;;8.07;5.82;;;;;;;;;;4935342;29;20488;-64
2023/04/21 00:36:27;;;;;;;9.63;5.60;;;;;;;;;;4935092;29;20044;-65
2023/04/21 00:38:53;;;;;;;7.05;5.63;;;;;;;;;;4935574;29;20059;-65
2023/04/21 00:41:19;;;;;;;9.52;6.03;;;;;;;;;;4935431;29;20056;-65
2023/04/21 00:43:59;;;;;;;11.65;6.03;;;;;;;;;;4935406;29;20142;-65
2023/04/21 00:46:25;;;;;;;7.65;5.80;;;;;;;;;;4935593;29;20061;-65
2023/04/21 00:48:51;;;;;;;9.35;6.82;;;;;;;;;;4935221;29;20058;-65
2023/04/21 00:51:18;;;;;;;11.75;6.35;;;;;;;;;;4935106;29;20521;-65
2023/04/21 00:53:45;;;;;;;9.32;6.50;;;;;;;;;;4935099;29;20052;-65
2023/04/21 00:56:11;;;;;;;9.60;6.10;;;;;;;;;;4935164;29;20408;-64
2023/04/21 00:58:40;;;;;;;9.00;6.68;;;;;;;;;;4935070;29;20052;-64
2023/04/21 01:01:07;;;;;;;10.52;6.45;;;;;;;;;;4935198;29;20054;-65
2023/04/21 01:03:34;;;;;;;7.20;6.45;;;;;;;;;;4935155;29;20519;-65
2023/04/21 01:06:01;;;;;;;8.85;6.70;;;;;;;;;;4934913;29;20491;-65
2023/04/21 01:08:28;;;;;;;8.25;6.65;;;;;;;;;;4934915;29;20143;-65
2023/04/21 01:10:55;;;;;;;9.52;7.72;;;;;;;;;;4935157;29;20051;-65
2023/04/21 01:13:21;;;;;;;11.68;7.57;;;;;;;;;;4934665;29;20047;-65
2023/04/21 01:15:48;;;;;;;9.75;7.53;;;;;;;;;;4934810;29;20094;-65
2023/04/21 01:18:15;;;;;;;13.55;8.23;;;;;;;;;;4934069;29;20135;-65
2023/04/21 01:20:43;;;;;;;10.18;7.47;;;;;;;;;;4934905;29;20506;-65
2023/04/21 01:23:10;;;;;;;11.52;8.32;;;;;;;;;;4929480;29;20087;-65
2023/04/21 01:25:36;;;;;;;11.27;8.10;;;;;;;;;;4934562;29;20087;-64
2023/04/21 01:28:02;;;;;;;13.57;8.20;;;;;;;;;;4934571;29;20518;-65
2023/04/21 01:30:29;;;;;;;12.68;9.07;;;;;;;;;;4934540;29;20505;-65
2023/04/21 01:32:57;;;;;;;13.02;8.73;;;;;;;;;;4934642;29;20443;-64
2023/04/21 01:35:24;;;;;;;13.48;8.63;;;;;;;;;;4934735;29;20043;-65
2023/04/21 01:37:50;;;;;;;9.95;7.20;;;;;;;;;;4934429;29;20127;-65
2023/04/21 01:40:16;;;;;;;11.23;8.27;;;;;;;;;;4934305;29;20139;-65
2023/04/21 01:42:43;;;;;;;13.70;8.68;;;;;;;;;;4934475;29;20385;-65
2023/04/21 01:45:09;;;;;;;11.15;8.13;;;;;;;;;;4934704;29;20051;-65
2023/04/21 01:47:36;;;;;;;12.18;8.57;;;;;;;;;;4934303;29;20048;-65
2023/04/21 01:50:02;;;;;;;10.77;8.80;;;;;;;;;;4934330;29;20500;-65
2023/04/21 01:52:29;;;;;;;10.70;8.48;;;;;;;;;;4934542;29;20056;-65
2023/04/21 01:54:55;;;;;;;14.18;8.85;;;;;;;;;;4934454;29;20047;-64
2023/04/21 01:57:22;;;;;;;13.57;9.20;;;;;;;;;;4934176;29;20047;-65
2023/04/21 01:59:48;;;;;;;14.40;9.15;;;;;;;;;;4934557;29;20043;-65
2023/04/21 02:02:15;;;;;;;15.18;9.13;;;;;;;;;;4934231;29;20062;-65
2023/04/21 02:04:41;;;;;;;11.35;8.98;;;;;;;;;;4934078;29;20048;-64
2023/04/21 02:07:07;;;;;;;9.57;8.30;;;;;;;;;;4934018;29;20059;-65
2023/04/21 02:09:34;;;;;;;13.05;8.43;;;;;;;;;;4934373;29;20494;-65
2023/04/21 02:12:01;;;;;;;10.88;8.05;;;;;;;;;;4934470;29;20173;-65
2023/04/21 02:14:27;;;;;;;12.70;8.98;;;;;;;;;;4934257;29;20134;-65
2023/04/21 02:16:54;;;;;;;10.88;8.43;;;;;;;;;;4934417;29;20130;-65
2023/04/21 02:19:21;;;;;;;13.45;8.85;;;;;;;;;;4934205;29;20047;-65
2023/04/21 02:21:48;;;;;;;12.45;9.23;;;;;;;;;;4934232;29;20086;-65
2023/04/21 02:24:14;;;;;;;10.98;8.55;;;;;;;;;;4934334;29;20055;-65
2023/04/21 02:26:41;;;;;;;10.10;9.05;;;;;;;;;;4934133;29;20126;-65
2023/04/21 02:29:07;;;;;;;13.70;8.75;;;;;;;;;;4936551;29;20066;-65
2023/04/21 02:31:33;;;;;;;12.07;8.95;;;;;;;;;;4937703;29;20106;-65
2023/04/21 02:34:11;;;;;;;13.35;9.65;;;;;;;;;;4937681;29;20056;-65
2023/04/21 02:36:38;;;;;;;13.13;9.20;;;;;;;;;;4937810;29;20055;-65
2023/04/21 02:39:04;;;;;;;15.10;9.80;;;;;;;;;;4937883;29;20054;-65
2023/04/21 02:41:30;;;;;;;12.75;9.52;;;;;;;;;;4937900;29;20048;-65
2023/04/21 02:43:57;;;;;;;16.13;9.60;;;;;;;;;;4937728;29;20047;-65
2023/04/21 02:46:23;;;;;;;14.05;10.02;;;;;;;;;;4937478;29;20744;-65
2023/04/21 02:48:49;;;;;;;11.38;10.02;;;;;;;;;;4937645;29;20103;-65
2023/04/21 02:51:16;;;;;;;15.65;9.88;;;;;;;;;;4937608;29;20066;-65
2023/04/21 02:53:42;;;;;;;13.43;10.15;;;;;;;;;;4937470;29;20051;-65
2023/04/21 02:56:09;;;;;;;13.10;10.52;;;;;;;;;;4937330;29;20086;-65
2023/04/21 02:58:35;;;;;;;12.48;10.60;;;;;;;;;;4937455;29;20052;-65
2023/04/21 03:01:03;;;;;;;12.93;10.57;;;;;;;;;;4937465;29;20138;-65
2023/04/21 03:03:30;;;;;;;14.27;10.00;;;;;;;;;;4937207;29;20052;-64
2023/04/21 03:05:57;;;;;;;14.27;10.15;;;;;;;;;;4937001;29;20484;-65
2023/04/21 03:08:23;;;;;;;12.88;10.60;;;;;;;;;;4937204;29;20051;-65
2023/04/21 03:10:50;;;;;;;14.65;10.70;;;;;;;;;;4937313;29;20087;-64
2023/04/21 03:13:16;;;;;;;14.75;11.38;;;;;;;;;;4936925;29;20587;-65
2023/04/21 03:15:43;;;;;;;15.40;10.95;;;;;;;;;;4936964;29;20482;-65
2023/04/21 03:18:10;;;;;;;20.13;11.10;;;;;;;;;;4937031;29;20139;-65
2023/04/21 03:20:36;;;;;;;13.73;10.90;;;;;;;;;;4937122;29;20056;-65
2023/04/21 03:23:03;;;;;;;15.35;11.38;;;;;;;;;;4936984;29;20058;-65
2023/04/21 03:25:29;;;;;;;13.27;10.73;;;;;;;;;;4937054;29;20056;-65
2023/04/21 03:27:55;;;;;;;13.25;11.20;;;;;;;;;;4937016;29;20135;-65
2023/04/21 03:30:25;;;;;;;15.13;10.88;;;;;;;;;;4936693;29;20110;-65
2023/04/21 03:32:51;;;;;;;16.15;11.55;;;;;;;;;;4936639;29;20464;-65
2023/04/21 03:35:18;;;;;;;16.15;11.23;;;;;;;;;;4936647;29;20058;-65
2023/04/21 03:37:45;;;;;;;15.38;11.07;;;;;;;;;;4936797;29;20047;-65
2023/04/21 03:40:11;;;;;;;12.05;10.70;;;;;;;;;;4935858;29;20500;-65
2023/04/21 03:42:37;;;;;;;13.25;10.68;;;;;;;;;;4936538;29;20500;-65
2023/04/21 03:45:05;;;;;;;15.68;11.30;;;;;;;;;;4936472;29;20495;-65
2023/04/21 03:47:31;;;;;;;14.02;11.57;;;;;;;;;;4936421;29;20056;-64
2023/04/21 03:49:57;;;;;;;15.38;11.60;;;;;;;;;;4936591;29;20460;-64
2023/04/21 03:52:24;;;;;;;15.05;11.52;;;;;;;;;;4936464;29;20082;-64
2023/04/21 03:54:50;;;;;;;17.27;11.98;;;;;;;;;;4936348;29;20058;-65
2023/04/21 03:57:17;;;;;;;15.88;11.40;;;;;;;;;;4936146;29;20407;-65
2023/04/21 03:59:43;;;;;;;15.02;11.18;;;;;;;;;;4936258;29;20093;-64
2023/04/21 04:02:09;;;;;;;15.63;11.88;;;;;;;;;;4936005;29;20048;-65
2023/04/21 04:04:36;;;;;;;15.40;11.05;;;;;;;;;;4936059;29;20055;-65
2023/04/21 04:07:03;;;;;;;17.40;11.93;;;;;;;;;;4936040;29;20063;-65
2023/04/21 04:09:30;;;;;;;15.13;11.73;;;;;;;;;;4936145;29;20043;-65
2023/04/21 04:11:56;;;;;;;17.52;11.85;;;;;;;;;;4936060;29;20062;-65
2023/04/21 04:14:23;;;;;;;18.48;12.18;;;;;;;;;;4935742;29;20447;-65
2023/04/21 04:16:49;;;;;;;14.80;11.27;;;;;;;;;;4936193;29;20048;-65
2023/04/21 04:19:15;;;;;;;17.60;11.77;;;;;;;;;;4936052;29;20054;-65
2023/04/21 04:21:42;;;;;;;16.95;12.65;;;;;;;;;;4936075;29;20048;-65
2023/04/21 04:24:10;;;;;;;18.08;12.30;;;;;;;;;;4935891;29;20138;-65
2023/04/21 04:26:37;;;;;;;18.15;12.30;;;;;;;;;;4935915;29;20134;-65
2023/04/21 04:29:04;;;;;;;15.55;13.07;;;;;;;;;;4935610;29;20087;-65
2023/04/21 04:31:31;;;;;;;18.48;13.43;;;;;;;;;;4935748;29;20081;-65
2023/04/21 04:33:57;;;;;;;16.83;12.00;;;;;;;;;;4935751;29;20130;-65
2023/04/21 04:36:24;;;;;;;14.45;12.85;;;;;;;;;;4935532;29;20134;-65
2023/04/21 04:38:50;;;;;;;15.38;13.02;;;;;;;;;;4935693;29;20054;-64
2023/04/21 04:41:18;;;;;;;15.95;12.88;;;;;;;;;;4935459;29;20058;-65
2023/04/21 04:43:45;;;;;;;16.50;12.50;;;;;;;;;;4935273;29;20047;-65
2023/04/21 04:46:12;;;;;;;17.73;12.60;;;;;;;;;;4935347;29;20103;-65
2023/04/21 04:48:39;;;;;;;19.60;14.30;;;;;;;;;;4935255;29;20496;-65
2023/04/21 04:51:05;;;;;;;17.65;13.82;;;;;;;;;;4934942;29;20056;-65
2023/04/21 04:53:32;;;;;;;19.05;14.13;;;;;;;;;;4934733;29;20047;-64
2023/04/21 04:55:58;;;;;;;20.02;14.70;;;;;;;;;;4934985;29;20484;-65
2023/04/21 04:58:25;;;;;;;18.02;14.35;;;;;;;;;;4935165;29;20058;-65
2023/04/21 05:00:51;;;;;;;23.70;14.60;;;;;;;;;;4935209;29;20071;-65
2023/04/21 05:03:18;;;;;;;20.75;14.68;;;;;;;;;;4934617;29;20492;-65
2023/04/21 05:05:45;;;;;;;18.55;14.88;;;;;;;;;;4935327;29;20407;-65
2023/04/21 05:08:11;;;;;;;16.27;13.65;;;;;;;;;;4934819;29;20139;-65
2023/04/21 05:10:39;;;;;;;17.17;14.40;;;;;;;;;;4934926;29;20063;-65
2023/04/21 05:13:05;;;;;;;19.73;15.02;;;;;;;;;;4934809;29;20134;-65
2023/04/21 05:15:32;;;;;;;19.90;15.80;;;;;;;;;;4935052;29;20055;-65
2023/04/21 05:17:58;;;;;;;20.88;15.75;;;;;;;;;;4934790;29;20139;-65
2023/04/21 05:20:24;;;;;;;17.95;14.27;;;;;;;;;;4935060;29;20043;-65
2023/04/21 05:22:51;;;;;;;19.75;14.95;;;;;;;;;;4934765;29;20496;-64
2023/04/21 05:25:17;;;;;;;19.80;14.98;;;;;;;;;;4934577;29;20492;-64
2023/04/21 05:27:43;;;;;;;18.20;14.63;;;;;;;;;;4934922;29;20419;-65
2023/04/21 05:30:10;;;;;;;18.77;15.43;;;;;;;;;;4934599;29;20480;-65
2023/04/21 05:32:37;;;;;;;19.80;14.35;;;;;;;;;;4934869;29;20070;-65
2023/04/21 05:35:03;;;;;;;18.15;15.55;;;;;;;;;;4934755;29;20070;-65
2023/04/21 05:37:30;;;;;;;18.38;14.30;;;;;;;;;;4934787;29;20409;-65
2023/04/21 05:39:56;;;;;;;17.45;14.57;;;;;;;;;;4934470;29;20054;-64
2023/04/21 05:42:22;;;;;;;17.95;14.73;;;;;;;;;;4934363;29;20496;-64
2023/04/21 05:44:49;;;;;;;18.60;14.95;;;;;;;;;;4934430;29;20496;-65
2023/04/21 05:47:15;;;;;;;21.92;14.98;;;;;;;;;;4934368;29;20130;-65
2023/04/21 05:49:48;;;;;;;21.10;15.18;;;;;;;;;;4934481;29;20078;-65
2023/04/21 05:52:16;;;;;;;18.67;14.60;;;;;;;;;;4934391;29;20449;-65
2023/04/21 05:54:43;;;;;;;19.05;14.82;;;;;;;;;;4934589;29;20140;-65
2023/04/21 05:57:09;;;;;;;17.77;14.18;;;;;;;;;;4934299;29;20083;-64
2023/04/21 05:59:36;;;;;;;16.75;14.57;;;;;;;;;;4934591;29;20118;-65
2023/04/21 06:02:02;;;;;;;18.23;13.93;;;;;;;;;;4934559;29;20047;-64
2023/04/21 06:04:29;;;;;;;20.43;14.70;;;;;;;;;;4937407;29;20055;-64
2023/04/21 06:06:56;;;;;;;19.38;14.38;;;;;;;;;;4938051;29;20051;-64
2023/04/21 06:09:22;;;;;;;17.23;13.95;;;;;;;;;;4938129;29;20492;-64
2023/04/21 06:11:49;;;;;;;15.98;14.27;;;;;;;;;;4938460;29;20078;-64
2023/04/21 06:14:16;;;;;;;18.92;13.02;;;;;;;;;;4937979;29;20052;-65
2023/04/21 06:16:42;;;;;;;19.92;14.13;;;;;;;;;;4938091;29;20046;-65
2023/04/21 06:19:09;;;;;;;17.65;14.10;;;;;;;;;;4937941;29;20056;-65
2023/04/21 06:21:35;;;;;;;19.05;14.10;;;;;;;;;;4938012;29;20130;-66
2023/04/21 06:24:02;;;;;;;17.50;13.35;;;;;;;;;;4937968;29;20058;-65
2023/04/21 06:26:29;;;;;;;17.63;14.20;;;;;;;;;;4937893;29;20089;-65
2023/04/21 06:28:55;;;;;;;17.58;13.82;;;;;;;;;;4938085;29;20055;-65
2023/04/21 06:31:21;;;;;;;17.67;13.43;;;;;;;;;;4938079;29;20062;-65
2023/04/21 06:33:48;;;;;;;16.77;13.98;;;;;;;;;;4937748;29;20135;-64
2023/04/21 06:36:14;;;;;;;21.00;14.63;;;;;;;;;;4937635;29;20058;-64
2023/04/21 06:38:43;;;;;;;18.63;13.18;;;;;;;;;;4937874;29;20039;-64
2023/04/21 06:41:09;;;;;;;18.60;12.60;;;;;;;;;;4937747;29;20055;-65
2023/04/21 06:46:57;;;;;;;19.55;13.80;;;;;;;;;;4935133;29;20067;-65
2023/04/21 06:49:24;;;;;;;17.20;13.25;;;;;;;;;;4918644;29;20047;-65
2023/04/21 06:51:50;;;;;;;17.98;13.15;;;;;;;;;;4921395;29;20052;-65
2023/04/21 06:54:16;;;;;;;17.13;12.55;;;;;;;;;;4936294;29;20138;-64
2023/04/21 06:56:43;;;;;;;17.42;13.25;;;;;;;;;;4937406;29;20049;-64
2023/04/21 06:59:09;;;;;;;19.23;13.45;;;;;;;;;;4937459;29;20052;-64
2023/04/21 07:01:36;;;;;;;14.80;12.20;;;;;;;;;;4937480;29;20051;-65
2023/04/21 07:04:04;;;;;;;17.48;12.13;;;;;;;;;;4937056;29;20079;-64
2023/04/21 07:06:31;;;;;;;15.80;11.40;;;;;;;;;;4936921;29;20052;-65
2023/04/21 07:08:57;;;;;;;14.80;12.23;;;;;;;;;;4923848;29;20052;-65
2023/04/21 07:11:24;;;;;;;15.48;11.23;;;;;;;;;;4933701;29;20172;-65
2023/04/21 07:13:50;;;;;;;15.70;12.73;;;;;;;;;;4927196;29;20150;-64
2023/04/21 07:16:17;;;;;;;14.32;11.95;;;;;;;;;;4924379;29;20056;-64
2023/04/21 07:18:43;;;;;;;17.38;12.52;;;;;;;;;;4917995;29;20048;-66
2023/04/21 07:21:10;;;;;;;17.63;12.57;;;;;;;;;;4928830;29;20048;-65
2023/04/21 07:23:36;;;;;;;15.57;11.77;;;;;;;;;;4936913;29;20048;-65
2023/04/21 07:26:02;;;;;;;15.85;12.95;;;;;;;;;;4936252;29;20064;-65
2023/04/21 07:28:29;;;;;;;20.17;13.13;;;;;;;;;;4925065;29;20063;-65
2023/04/21 07:30:55;;;;;;;17.10;12.07;;;;;;;;;;4929024;29;20131;-64
2023/04/21 07:33:22;;;;;;;16.50;12.57;;;;;;;;;;4925222;29;20087;-65
2023/04/21 07:35:48;;;;;;;18.80;12.98;;;;;;;;;;4935069;29;20411;-65
2023/04/21 07:38:14;;;;;;;18.35;12.68;;;;;;;;;;4935565;29;20411;-65
2023/04/21 07:40:41;;;;;;;17.30;13.10;;;;;;;;;;4935071;29;20048;-65
2023/04/21 07:43:07;;;;;;;18.77;12.52;;;;;;;;;;4926752;29;20086;-65
2023/04/21 07:45:34;;;;;;;16.45;12.55;;;;;;;;;;4924649;29;20058;-65
2023/04/21 07:48:00;;;;;;;14.60;12.10;;;;;;;;;;4936763;29;20531;-65
2023/04/21 07:50:27;;;;;;;17.90;13.45;;;;;;;;;;4936629;29;20083;-65
2023/04/21 07:52:53;;;;;;;18.42;13.57;;;;;;;;;;4936448;29;20056;-65
2023/04/21 07:55:19;;;;;;;16.50;12.75;;;;;;;;;;4936232;29;20503;-65
2023/04/21 07:57:46;;;;;;;19.98;13.93;;;;;;;;;;4936398;29;20407;-65
2023/04/21 08:00:12;;;;;;;16.05;12.80;;;;;;;;;;4928547;29;20496;-65
2023/04/21 08:02:39;;;;;;;19.08;12.68;;;;;;;;;;4936259;29;20110;-65
2023/04/21 08:05:06;;;;;;;21.77;13.20;;;;;;;;;;4936091;29;20103;-65
2023/04/21 08:07:32;;;;;;;21.95;13.13;;;;;;;;;;4936054;29;20082;-64
2023/04/21 08:09:59;;;;;;;17.67;12.82;;;;;;;;;;4936061;29;20054;-65
2023/04/21 08:12:25;;;;;;;18.30;12.68;;;;;;;;;;4936311;29;20051;-65
2023/04/21 08:14:52;;;;;;;18.58;14.23;;;;;;;;;;4935834;29;20051;-66
2023/04/21 08:17:20;;;;;;;17.92;13.95;;;;;;;;;;4936161;29;20111;-65
2023/04/21 08:19:46;;;;;;;20.95;14.10;;;;;;;;;;4936280;29;20050;-66
2023/04/21 08:22:12;;;;;;;17.23;12.88;;;;;;;;;;4935926;29;20055;-65
2023/04/21 08:24:39;;;;;;;18.48;13.65;;;;;;;;;;4935881;29;20131;-65
2023/04/21 08:27:05;;;;;;;15.57;12.95;;;;;;;;;;4935589;29;20710;-65
2023/04/21 08:29:31;;;;;;;18.85;14.88;;;;;;;;;;4936053;29;20416;-66
2023/04/21 08:31:58;;;;;;;22.45;15.60;;;;;;;;;;4934710;29;20056;-65
2023/04/21 08:34:25;;;;;;;19.38;15.15;;;;;;;;;;4936005;29;20079;-65
2023/04/21 08:36:53;;;;;;;18.65;14.63;;;;;;;;;;4935769;29;20052;-66
2023/04/21 08:39:20;;;;;;;17.50;14.23;;;;;;;;;;4935792;29;20174;-65
2023/04/21 08:41:46;;;;;;;16.33;13.33;;;;;;;;;;4935860;29;20086;-66
2023/04/21 08:44:14;;;;;;;20.77;13.95;;;;;;;;;;4935852;29;20127;-65
2023/04/21 08:46:41;;;;;;;22.23;13.82;;;;;;;;;;4935835;29;20058;-65
2023/04/21 08:49:08;;;;;;;23.52;13.55;;;;;;;;;;4933490;29;20147;-65
2023/04/21 08:51:35;;;;;;;24.90;12.88;;;;;;;;;;4934008;29;20056;-66
2023/04/21 08:54:01;;;;;;;22.17;13.40;;;;;;;;;;4934186;29;20144;-66
2023/04/21 08:56:28;;;;;;;18.48;12.55;;;;;;;;;;4935191;29;20571;-65
2023/04/21 08:58:54;;;;;;;19.88;14.20;;;;;;;;;;4935331;29;20062;-65
2023/04/21 09:01:21;;;;;;;20.50;13.77;;;;;;;;;;4935235;29;20107;-65
2023/04/21 09:03:47;;;;;;;22.35;14.13;;;;;;;;;;4935102;29;20048;-65
2023/04/21 09:06:14;;;;;;;20.57;13.10;;;;;;;;;;4935168;29;20059;-66
2023/04/21 09:08:42;;;;;;;;;;;;;;;;;;4935822;29;20063;-66
2023/04/21 09:11:12;;;;;;;22.38;13.55;;;;;;;;;;4935246;29;19930;-66
2023/04/21 09:13:57;;;;;;;17.23;12.32;;;;;;;;;;4935338;29;20051;-65
2023/04/21 09:16:23;;;;;;;21.08;14.13;;;;;;;;;;4935134;29;20126;-65
2023/04/21 09:18:50;;;;;;;22.92;14.02;;;;;;;;;;4935214;29;20048;-65
2023/04/21 09:21:17;;;;;;;19.10;14.20;;;;;;;;;;4935037;29;20083;-65
2023/04/21 09:23:48;;;;;;;19.08;14.10;;;;;;;;;;4934921;29;20126;-64
2023/04/21 09:26:15;;;;;;;22.27;13.23;;;;;;;;;;4934688;29;20102;-65
2023/04/21 09:28:42;;;;;;;22.02;14.15;;;;;;;;;;4934785;29;20499;-64
2023/04/21 09:31:14;;;;;;;19.33;14.25;;;;;;;;;;4934675;29;20419;-64
2023/04/21 09:33:45;;;;;;;17.00;14.13;;;;;;;;;;4934948;29;20058;-64
2023/04/21 09:36:28;;;;;;;18.92;14.18;;;;;;;;;;4934935;29;20123;-65
2023/04/21 09:38:56;;;;;;;16.85;13.23;;;;;;;;;;4934204;29;20045;-64
2023/04/21 09:41:43;;;;;;;18.70;14.43;;;;;;;;;;4933589;29;20051;-64
2023/04/21 09:44:09;;;;;;;20.75;13.77;;;;;;;;;;4934919;29;20070;-64
2023/04/21 09:46:36;;;;;;;16.77;13.60;;;;;;;;;;4934687;29;20475;-64
2023/04/21 09:49:03;;;;;;;18.45;13.48;;;;;;;;;;4934459;29;20508;-64
2023/04/21 09:51:30;;;;;;;16.50;13.73;;;;;;;;;;4934731;29;20075;-65
2023/04/21 09:54:17;;;;;;;18.77;13.55;;;;;;;;;;4934312;29;20054;-64
2023/04/21 09:56:57;;;;;;;18.88;13.98;;;;;;;;;;4933521;29;20099;-64
2023/04/21 09:59:24;;;;;;;15.20;12.68;;;;;;;;;;4934845;29;20054;-64
2023/04/21 10:01:52;;;;;;;15.80;12.45;;;;;;;;;;4934295;29;20043;-64
2023/04/21 10:04:19;;;;;;;17.95;13.23;;;;;;;;;;4934426;29;20048;-63
2023/04/21 10:06:47;;;;;;;;;;;;;;;;;;4934783;29;20469;-64
2023/04/21 10:09:15;;;;;;;13.70;12.38;;;;;;;;;;4934545;29;19931;-65
2023/04/21 10:11:41;;;;;;;16.20;12.00;;;;;;;;;;4934450;29;20196;-66
2023/04/21 10:14:07;;;;;;;16.85;13.25;;;;;;;;;;4934158;29;20059;-65
2023/04/21 10:16:37;;;;;;;13.55;12.20;;;;;;;;;;4934274;29;20423;-65
2023/04/21 10:19:21;;;;;;;13.48;11.95;;;;;;;;;;4934100;29;20504;-65
2023/04/21 10:21:48;;;;;;;15.02;11.60;;;;;;;;;;4934231;29;20058;-65
2023/04/21 10:24:14;;;;;;;12.98;11.43;;;;;;;;;;4934117;29;20503;-66
2023/04/21 10:26:41;;;;;;;14.20;11.85;;;;;;;;;;4934300;29;20423;-65
2023/04/21 10:29:08;;;;;;;13.45;12.05;;;;;;;;;;4928664;29;20116;-66
2023/04/21 10:31:35;;;;;;;12.95;11.60;;;;;;;;;;4929190;29;20047;-65
2023/04/21 10:34:04;;;;;;;13.70;12.23;;;;;;;;;;4934031;29;20508;-65
2023/04/21 10:36:33;;;;;;;13.93;12.48;;;;;;;;;;4934156;29;20491;-65
2023/04/21 10:39:02;;;;;;;13.15;11.65;;;;;;;;;;4933944;29;20048;-66
2023/04/21 10:41:29;;;;;;;12.50;11.30;;;;;;;;;;4934071;29;20147;-65
2023/04/21 10:44:08;;;;;;;14.32;12.57;;;;;;;;;;4932979;29;20057;-66
2023/04/21 10:46:44;;;;;;;13.68;12.25;;;;;;;;;;4934319;29;20447;-66
2023/04/21 10:49:19;;;;;;;14.18;12.77;;;;;;;;;;4934727;29;20054;-65
2023/04/21 10:52:04;;;;;;;12.85;11.65;;;;;;;;;;4937600;29;20534;-65
2023/04/21 10:54:45;;;;;;;11.93;10.82;;;;;;;;;;4937445;29;20514;-66
2023/04/21 10:57:15;;;;;;;11.98;10.88;;;;;;;;;;4937602;29;20431;-66
2023/04/21 10:59:41;;;;;;;12.77;10.80;;;;;;;;;;4937404;29;20044;-66
2023/04/21 11:02:12;;;;;;;11.18;10.18;;;;;;;;;;4937435;29;20056;-65
2023/04/21 11:04:43;;;;;;;11.20;10.10;;;;;;;;;;4937448;29;20055;-65
2023/04/21 11:07:11;;;;;;;12.27;10.15;;;;;;;;;;4937264;29;20490;-66
2023/04/21 11:09:38;;;;;;;11.13;10.02;;;;;;;;;;4937453;29;20051;-66
2023/04/21 11:12:06;;;;;;;11.18;10.13;;;;;;;;;;4937523;29;20056;-66
2023/04/21 11:14:32;;;;;;;;;;;;;;;;;;4929553;29;20066;-65
2023/04/21 11:17:01;;;;;;;10.65;9.55;;;;;;;;;;4919415;29;19927;-66
2023/04/21 11:19:30;;;;;;;10.63;9.63;;;;;;;;;;4936956;29;20568;-66
2023/04/21 11:21:57;;;;;;;8.98;8.27;;;;;;;;;;4936893;29;20496;-66
2023/04/21 11:24:23;;;;;;;8.88;8.07;;;;;;;;;;4937155;29;20142;-66
2023/04/21 11:26:50;;;;;;;9.30;8.40;;;;;;;;;;4936864;29;20058;-66
2023/04/21 11:29:16;;;;;;;9.63;8.73;;;;;;;;;;4937144;29;20054;-66
2023/04/21 11:31:44;;;;;;;9.40;8.40;;;;;;;;;;4936865;29;20091;-66
2023/04/21 11:34:10;;;;;;;;;;;;;;;;;;4937728;29;20048;-66
2023/04/21 11:36:46;;;;;;;9.15;8.32;;;;;;;;;;4936972;29;19933;-66
2023/04/21 11:39:14;;;;;;;8.70;8.00;;;;;;;;;;4937063;29;20066;-66
2023/04/21 11:41:42;;;;;;;9.32;8.52;;;;;;;;;;4936690;29;20138;-66
2023/04/21 11:44:08;;;;;;;9.18;8.38;;;;;;;;;;4936732;29;20047;-65
2023/04/21 11:46:38;;;;;;;9.73;8.85;;;;;;;;;;4936556;29;20059;-66
2023/04/21 11:49:06;;;;;;;8.50;7.70;;;;;;;;;;4936556;29;20079;-66
2023/04/21 11:51:36;;;;;;;7.85;7.25;;;;;;;;;;4936645;29;20106;-65
2023/04/21 11:54:04;;;;;;;8.50;7.72;;;;;;;;;;4936518;29;20427;-65
2023/04/21 11:56:33;;;;;;;8.63;7.72;;;;;;;;;;4936566;29;20135;-66
2023/04/21 11:58:59;;;;;;;8.60;7.72;;;;;;;;;;4936225;29;20492;-66
2023/04/21 12:01:26;;;;;;;8.60;7.82;;;;;;;;;;4935781;29;20492;-66
2023/04/21 12:03:53;;;;;;;8.38;7.57;;;;;;;;;;4936394;29;20086;-65
2023/04/21 12:06:27;;;;;;;8.40;7.70;;;;;;;;;;4936016;29;20507;-66
2023/04/21 12:08:55;;;;;;;8.70;7.95;;;;;;;;;;4936553;29;20427;-66
2023/04/21 12:11:21;;;;;;;;;;;;;;;;;;4936507;29;20504;-66
2023/04/21 12:13:48;;;;;;;9.40;8.60;;;;;;;;;;4936298;29;19926;-66
2023/04/21 12:16:14;;;;;;;9.35;8.55;;;;;;;;;;4936164;29;20135;-65
2023/04/21 12:18:41;;;;;;;9.95;9.05;;;;;;;;;;4935982;29;20048;-65
2023/04/21 12:21:07;;;;;;;10.67;9.77;;;;;;;;;;4936045;29;20428;-66
2023/04/21 12:23:34;;;;;;;10.07;9.13;;;;;;;;;;4935913;29;20496;-65
2023/04/21 12:26:01;;;;;;;11.02;9.90;;;;;;;;;;4935732;29;20055;-66
2023/04/21 12:28:28;;;;;;;10.27;9.27;;;;;;;;;;4935756;29;20567;-66
2023/04/21 12:30:55;;;;;;;10.55;9.63;;;;;;;;;;4935808;29;20510;-65
2023/04/21 12:33:21;;;;;;;10.82;9.80;;;;;;;;;;4935696;29;20819;-66
2023/04/21 12:35:48;;;;;;;10.90;9.90;;;;;;;;;;4935711;29;20510;-66
2023/04/21 12:38:14;;;;;;;11.85;10.75;;;;;;;;;;4935680;29;20058;-66
2023/04/21 12:40:41;;;;;;;11.20;10.20;;;;;;;;;;4935504;29;20099;-66
2023/04/21 12:43:07;;;;;;;11.75;10.63;;;;;;;;;;4935556;29;20054;-65
2023/04/21 12:45:33;;;;;;;11.25;10.15;;;;;;;;;;4935495;29;20056;-66
2023/04/21 12:48:00;;;;;;;11.07;9.90;;;;;;;;;;4935641;29;20055;-65
2023/04/21 12:50:26;;;;;;;10.40;9.40;;;;;;;;;;4935313;29;20059;-66
2023/04/21 12:52:54;;;;;;;9.88;8.98;;;;;;;;;;4935510;29;20102;-66
2023/04/21 12:55:21;;;;;;;9.98;9.07;;;;;;;;;;4935225;29;20066;-66
2023/04/21 12:57:48;;;;;;;9.80;8.80;;;;;;;;;;4935498;29;20127;-66
2023/04/21 13:00:15;;;;;;;10.70;9.77;;;;;;;;;;4935496;29;20063;-66
2023/04/21 13:02:41;;;;;;;9.95;9.05;;;;;;;;;;4924643;29;20044;-66
2023/04/21 13:05:09;;;;;;;10.77;9.77;;;;;;;;;;4932090;29;20051;-67
2023/04/21 13:07:35;;;;;;;10.70;9.65;;;;;;;;;;4933816;29;20138;-67
2023/04/21 13:10:05;;;;;;;10.85;9.82;;;;;;;;;;4935183;29;20058;-66
2023/04/21 13:12:32;;;;;;;11.80;10.70;;;;;;;;;;4934400;29;20059;-66
2023/04/21 13:14:58;;;;;;;12.57;11.48;;;;;;;;;;4934943;29;20052;-66
2023/04/21 13:17:24;;;;;;;12.52;11.43;;;;;;;;;;4919752;29;20056;-66
2023/04/21 13:19:51;;;;;;;11.60;10.50;;;;;;;;;;4922982;29;20058;-66
2023/04/21 13:22:17;;;;;;;12.00;10.80;;;;;;;;;;4928009;29;20058;-66
2023/04/21 13:24:44;;;;;;;12.77;11.23;;;;;;;;;;4923374;29;20092;-66
2023/04/21 13:27:10;;;;;;;15.98;14.43;;;;;;;;;;4930968;29;20075;-66
2023/04/21 13:29:36;;;;;;;16.65;14.95;;;;;;;;;;4934696;29;20530;-66
2023/04/21 13:32:04;;;;;;;19.92;16.20;;;;;;;;;;4934729;29;20079;-65
2023/04/21 13:34:32;;;;;;;18.02;13.95;;;;;;;;;;4935105;29;20058;-66
2023/04/21 13:36:59;;;;;;;;;;;;;;;;;;4934930;29;20054;-65
2023/04/21 13:39:25;;;;;;;12.38;11.27;;;;;;;;;;4935191;29;19927;-66
2023/04/21 13:41:52;;;;;;;11.70;10.50;;;;;;;;;;4934579;29;20131;-66
2023/04/21 13:44:22;;;;;;;12.10;10.95;;;;;;;;;;4934745;29;20059;-66
2023/04/21 13:46:50;;;;;;;11.50;10.40;;;;;;;;;;4934573;29;20134;-66
2023/04/21 13:49:17;;;;;;;11.32;10.32;;;;;;;;;;4934688;29;20051;-66
2023/04/21 13:51:44;;;;;;;11.73;10.65;;;;;;;;;;4934407;29;20090;-66
2023/04/21 13:54:10;;;;;;;13.00;11.68;;;;;;;;;;4934663;29;20059;-66
2023/04/21 13:56:37;;;;;;;11.38;10.25;;;;;;;;;;4920870;29;20071;-66
2023/04/21 13:59:03;;;;;;;11.43;10.43;;;;;;;;;;4934530;29;20087;-66
2023/04/21 14:01:29;;;;;;;12.60;11.40;;;;;;;;;;4934640;29;20110;-66
2023/04/21 14:03:56;;;;;;;12.73;11.45;;;;;;;;;;4925252;29;20050;-65
2023/04/21 14:06:23;;;;;;;13.63;12.32;;;;;;;;;;4934330;29;20052;-65
2023/04/21 14:08:49;;;;;;;13.23;11.83;;;;;;;;;;4934293;29;20493;-66
2023/04/21 14:11:16;;;;;;;10.57;9.68;;;;;;;;;;4923808;29;20048;-65
2023/04/21 14:13:42;;;;;;;10.63;9.70;;;;;;;;;;4918483;29;20040;-66
2023/04/21 14:16:29;;;;;;;9.25;8.45;;;;;;;;;;4933667;29;20044;-66
2023/04/21 14:18:55;;;;;;;10.05;9.15;;;;;;;;;;4934192;29;20143;-66
2023/04/21 14:21:22;;;;;;;9.93;8.93;;;;;;;;;;4931199;29;20404;-65
2023/04/21 14:23:48;;;;;;;9.57;8.73;;;;;;;;;;4933874;29;20051;-66
2023/04/21 14:26:14;;;;;;;9.52;8.73;;;;;;;;;;4933624;29;20072;-68
2023/04/21 14:28:41;;;;;;;9.35;8.55;;;;;;;;;;4926666;29;20051;-68
2023/04/21 14:31:07;;;;;;;8.98;8.07;;;;;;;;;;4937086;29;20543;-68